Terminal Aerodrome Forecast
Issued by NWS

Home | Current Version | Previous Version | Text Only | Print | Product List | Glossary On
Versions: 1 2 3 4 5 6 7 8 9 10 11 12 13 14 15
979
FTAK31 PAJN 191130
TAFAKT
TAF
PAKT 191130Z 1912/2012 15010KT P6SM -SHRA SCT025 OVC040
      WS020/15030KT
      TEMPO 1912/1916 SHRA BKN025 OVC040
     FM191600 15010KT 5SM -SHRA BR OVC025
      AMD LTD TO CLD VIS AND WIND 1912/1915=

USA.gov is the U.S. government's official web portal to all federal, state and local government web resources and services.